sensor_id;sensor_type;location;lat;lon;timestamp;pressure;altitude;pressure_sealevel;temperature
51693;BMP280;37777;53.066;21.638;2023-05-10T00:01:58;101320.19;;;8.08
51693;BMP280;37777;53.066;21.638;2023-05-10T00:09:00;101313.44;;;7.97
51693;BMP280;37777;53.066;21.638;2023-05-10T00:16:02;101311.41;;;7.89
51693;BMP280;37777;53.066;21.638;2023-05-10T00:23:05;101321.78;;;7.82
51693;BMP280;37777;53.066;21.638;2023-05-10T00:30:08;101305.75;;;7.77
51693;BMP280;37777;53.066;21.638;2023-05-10T00:37:11;101308.84;;;7.84
51693;BMP280;37777;53.066;21.638;2023-05-10T00:44:13;101303.94;;;7.86
51693;BMP280;37777;53.066;21.638;2023-05-10T00:51:15;101282.97;;;7.69
51693;BMP280;37777;53.066;21.638;2023-05-10T00:58:17;101285.59;;;7.60
51693;BMP280;37777;53.066;21.638;2023-05-10T01:05:19;101297.56;;;7.54
51693;BMP280;37777;53.066;21.638;2023-05-10T01:12:21;101290.59;;;7.20
51693;BMP280;37777;53.066;21.638;2023-05-10T01:19:26;101285.22;;;7.06
51693;BMP280;37777;53.066;21.638;2023-05-10T01:34:12;101280.59;;;6.93
51693;BMP280;37777;53.066;21.638;2023-05-10T01:48:35;101284.38;;;6.73
51693;BMP280;37777;53.066;21.638;2023-05-10T01:55:45;101284.53;;;6.62
51693;BMP280;37777;53.066;21.638;2023-05-10T02:02:48;101289.91;;;6.62
51693;BMP280;37777;53.066;21.638;2023-05-10T02:09:51;101282.88;;;6.47
51693;BMP280;37777;53.066;21.638;2023-05-10T02:16:54;101286.94;;;6.45
51693;BMP280;37777;53.066;21.638;2023-05-10T02:23:59;101286.63;;;6.27
51693;BMP280;37777;53.066;21.638;2023-05-10T02:31:02;101280.53;;;6.22
51693;BMP280;37777;53.066;21.638;2023-05-10T02:38:04;101285.44;;;6.14
51693;BMP280;37777;53.066;21.638;2023-05-10T02:45:11;101276.66;;;6.28
51693;BMP280;37777;53.066;21.638;2023-05-10T02:52:18;101285.41;;;6.39
51693;BMP280;37777;53.066;21.638;2023-05-10T02:59:20;101292.66;;;6.19
51693;BMP280;37777;53.066;21.638;2023-05-10T03:06:23;101285.75;;;6.13
51693;BMP280;37777;53.066;21.638;2023-05-10T03:13:56;101289.41;;;6.22
51693;BMP280;37777;53.066;21.638;2023-05-10T03:21:07;101303.66;;;6.42
51693;BMP280;37777;53.066;21.638;2023-05-10T03:28:11;101301.69;;;6.66
51693;BMP280;37777;53.066;21.638;2023-05-10T03:35:14;101293.69;;;6.80
51693;BMP280;37777;53.066;21.638;2023-05-10T03:42:16;101285.97;;;6.93
51693;BMP280;37777;53.066;21.638;2023-05-10T03:49:19;101288.41;;;7.08
51693;BMP280;37777;53.066;21.638;2023-05-10T03:56:21;101290.25;;;7.41
51693;BMP280;37777;53.066;21.638;2023-05-10T04:03:23;101284.97;;;7.63
51693;BMP280;37777;53.066;21.638;2023-05-10T04:10:27;101288.66;;;7.95
51693;BMP280;37777;53.066;21.638;2023-05-10T04:17:29;101288.28;;;8.24
51693;BMP280;37777;53.066;21.638;2023-05-10T04:24:32;101296.97;;;8.58
51693;BMP280;37777;53.066;21.638;2023-05-10T04:31:34;101301.13;;;8.87
51693;BMP280;37777;53.066;21.638;2023-05-10T04:38:37;101307.41;;;9.27
51693;BMP280;37777;53.066;21.638;2023-05-10T04:45:40;101304.09;;;9.70
51693;BMP280;37777;53.066;21.638;2023-05-10T04:52:42;101300.00;;;10.08
51693;BMP280;37777;53.066;21.638;2023-05-10T04:59:44;101288.06;;;10.35
51693;BMP280;37777;53.066;21.638;2023-05-10T05:06:46;101295.53;;;10.65
51693;BMP280;37777;53.066;21.638;2023-05-10T05:13:47;101293.44;;;10.88
51693;BMP280;37777;53.066;21.638;2023-05-10T05:20:50;101294.56;;;11.16
51693;BMP280;37777;53.066;21.638;2023-05-10T05:27:52;101305.66;;;11.41
51693;BMP280;37777;53.066;21.638;2023-05-10T05:34:53;101292.88;;;11.71
51693;BMP280;37777;53.066;21.638;2023-05-10T05:41:55;101289.00;;;12.02
51693;BMP280;37777;53.066;21.638;2023-05-10T05:48:58;101288.00;;;12.28
51693;BMP280;37777;53.066;21.638;2023-05-10T05:56:00;101290.19;;;12.47
51693;BMP280;37777;53.066;21.638;2023-05-10T06:03:02;101290.59;;;12.70
51693;BMP280;37777;53.066;21.638;2023-05-10T06:10:06;101298.78;;;12.95
51693;BMP280;37777;53.066;21.638;2023-05-10T06:17:08;101296.41;;;13.18
51693;BMP280;37777;53.066;21.638;2023-05-10T06:24:10;101294.41;;;13.40
51693;BMP280;37777;53.066;21.638;2023-05-10T06:31:12;101303.38;;;13.68
51693;BMP280;37777;53.066;21.638;2023-05-10T06:38:14;101296.22;;;13.88
51693;BMP280;37777;53.066;21.638;2023-05-10T06:45:16;101299.53;;;14.10
51693;BMP280;37777;53.066;21.638;2023-05-10T06:52:19;101298.63;;;14.34
51693;BMP280;37777;53.066;21.638;2023-05-10T06:59:21;101302.16;;;14.66
51693;BMP280;37777;53.066;21.638;2023-05-10T07:06:24;101296.28;;;14.80
51693;BMP280;37777;53.066;21.638;2023-05-10T07:13:34;101286.53;;;14.95
51693;BMP280;37777;53.066;21.638;2023-05-10T07:20:37;101280.44;;;15.18
51693;BMP280;37777;53.066;21.638;2023-05-10T07:27:39;101284.19;;;15.29
51693;BMP280;37777;53.066;21.638;2023-05-10T07:34:41;101280.59;;;15.45
51693;BMP280;37777;53.066;21.638;2023-05-10T07:41:43;101281.63;;;15.56
51693;BMP280;37777;53.066;21.638;2023-05-10T07:48:45;101281.38;;;15.81
51693;BMP280;37777;53.066;21.638;2023-05-10T07:55:51;101272.75;;;15.78
51693;BMP280;37777;53.066;21.638;2023-05-10T08:02:53;101273.41;;;15.91
51693;BMP280;37777;53.066;21.638;2023-05-10T08:09:55;101263.38;;;15.99
51693;BMP280;37777;53.066;21.638;2023-05-10T08:16:57;101269.63;;;16.42
51693;BMP280;37777;53.066;21.638;2023-05-10T08:23:59;101269.03;;;16.52
51693;BMP280;37777;53.066;21.638;2023-05-10T08:31:01;101264.50;;;16.64
51693;BMP280;37777;53.066;21.638;2023-05-10T08:38:03;101269.50;;;16.58
51693;BMP280;37777;53.066;21.638;2023-05-10T08:45:07;101273.69;;;16.75
51693;BMP280;37777;53.066;21.638;2023-05-10T08:52:11;101271.53;;;16.88
51693;BMP280;37777;53.066;21.638;2023-05-10T08:59:14;101264.69;;;17.01
51693;BMP280;37777;53.066;21.638;2023-05-10T09:06:17;101266.88;;;17.19
51693;BMP280;37777;53.066;21.638;2023-05-10T09:13:22;101264.13;;;17.19
51693;BMP280;37777;53.066;21.638;2023-05-10T09:20:24;101262.09;;;17.42
51693;BMP280;37777;53.066;21.638;2023-05-10T09:27:26;101247.09;;;17.29
51693;BMP280;37777;53.066;21.638;2023-05-10T09:34:30;101256.66;;;17.46
51693;BMP280;37777;53.066;21.638;2023-05-10T09:41:33;101251.47;;;17.71
51693;BMP280;37777;53.066;21.638;2023-05-10T09:48:41;101248.31;;;17.69
51693;BMP280;37777;53.066;21.638;2023-05-10T09:55:45;101248.69;;;18.05
51693;BMP280;37777;53.066;21.638;2023-05-10T10:02:55;101238.63;;;18.20
51693;BMP280;37777;53.066;21.638;2023-05-10T10:09:57;101213.41;;;17.96
51693;BMP280;37777;53.066;21.638;2023-05-10T10:17:00;101224.59;;;18.25
51693;BMP280;37777;53.066;21.638;2023-05-10T10:24:06;101221.41;;;18.23
51693;BMP280;37777;53.066;21.638;2023-05-10T10:46:12;101198.91;;;18.47
51693;BMP280;37777;53.066;21.638;2023-05-10T10:53:17;101180.16;;;18.50
51693;BMP280;37777;53.066;21.638;2023-05-10T11:00:36;101187.25;;;18.58
51693;BMP280;37777;53.066;21.638;2023-05-10T11:07:54;101169.34;;;18.75
51693;BMP280;37777;53.066;21.638;2023-05-10T11:14:57;101164.72;;;18.93
51693;BMP280;37777;53.066;21.638;2023-05-10T11:29:12;101160.78;;;18.91
51693;BMP280;37777;53.066;21.638;2023-05-10T11:36:27;101148.22;;;18.82
51693;BMP280;37777;53.066;21.638;2023-05-10T11:43:29;101150.69;;;19.16
51693;BMP280;37777;53.066;21.638;2023-05-10T11:50:35;101139.34;;;19.21
51693;BMP280;37777;53.066;21.638;2023-05-10T11:57:38;101140.50;;;19.17
51693;BMP280;37777;53.066;21.638;2023-05-10T12:04:40;101143.69;;;19.37
51693;BMP280;37777;53.066;21.638;2023-05-10T12:11:43;101141.72;;;19.41
51693;BMP280;37777;53.066;21.638;2023-05-10T12:18:48;101140.16;;;19.47
51693;BMP280;37777;53.066;21.638;2023-05-10T12:25:51;101131.53;;;19.45
51693;BMP280;37777;53.066;21.638;2023-05-10T12:33:09;101135.06;;;19.56
51693;BMP280;37777;53.066;21.638;2023-05-10T12:40:13;101131.53;;;19.49
51693;BMP280;37777;53.066;21.638;2023-05-10T12:47:16;101115.88;;;19.49
51693;BMP280;37777;53.066;21.638;2023-05-10T12:54:18;101119.75;;;19.59
51693;BMP280;37777;53.066;21.638;2023-05-10T13:01:20;101112.31;;;19.74
51693;BMP280;37777;53.066;21.638;2023-05-10T13:08:22;101111.56;;;19.80
51693;BMP280;37777;53.066;21.638;2023-05-10T13:15:25;101104.50;;;19.76
51693;BMP280;37777;53.066;21.638;2023-05-10T13:22:27;101100.56;;;19.77
51693;BMP280;37777;53.066;21.638;2023-05-10T13:29:41;101094.28;;;19.66
51693;BMP280;37777;53.066;21.638;2023-05-10T13:36:46;101088.41;;;19.71
51693;BMP280;37777;53.066;21.638;2023-05-10T13:43:48;101082.50;;;19.87
51693;BMP280;37777;53.066;21.638;2023-05-10T13:50:50;101067.59;;;20.02
51693;BMP280;37777;53.066;21.638;2023-05-10T13:57:52;101072.28;;;19.94
51693;BMP280;37777;53.066;21.638;2023-05-10T14:04:54;101056.59;;;19.98
51693;BMP280;37777;53.066;21.638;2023-05-10T14:11:56;101073.88;;;19.88
51693;BMP280;37777;53.066;21.638;2023-05-10T14:18:58;101053.16;;;19.62
51693;BMP280;37777;53.066;21.638;2023-05-10T14:26:01;101058.63;;;19.44
51693;BMP280;37777;53.066;21.638;2023-05-10T14:33:03;101064.44;;;19.86
51693;BMP280;37777;53.066;21.638;2023-05-10T14:40:06;101055.47;;;19.74
51693;BMP280;37777;53.066;21.638;2023-05-10T14:47:08;101052.75;;;19.35
51693;BMP280;37777;53.066;21.638;2023-05-10T14:54:12;101066.84;;;19.22
51693;BMP280;37777;53.066;21.638;2023-05-10T15:01:14;101042.94;;;19.41
51693;BMP280;37777;53.066;21.638;2023-05-10T15:08:16;101038.63;;;19.47
51693;BMP280;37777;53.066;21.638;2023-05-10T15:15:19;101036.28;;;19.38
51693;BMP280;37777;53.066;21.638;2023-05-10T15:22:21;101039.41;;;19.26
51693;BMP280;37777;53.066;21.638;2023-05-10T15:29:23;101047.25;;;19.35
51693;BMP280;37777;53.066;21.638;2023-05-10T15:36:25;101044.09;;;19.33
51693;BMP280;37777;53.066;21.638;2023-05-10T15:43:28;101033.13;;;19.11
51693;BMP280;37777;53.066;21.638;2023-05-10T15:50:30;101027.63;;;19.08
51693;BMP280;37777;53.066;21.638;2023-05-10T15:57:32;101034.28;;;18.92
51693;BMP280;37777;53.066;21.638;2023-05-10T16:04:37;101035.50;;;19.16
51693;BMP280;37777;53.066;21.638;2023-05-10T16:11:41;101025.31;;;19.17
51693;BMP280;37777;53.066;21.638;2023-05-10T16:18:43;101035.44;;;18.95
51693;BMP280;37777;53.066;21.638;2023-05-10T16:25:45;101028.34;;;18.69
51693;BMP280;37777;53.066;21.638;2023-05-10T16:32:47;101036.13;;;18.52
51693;BMP280;37777;53.066;21.638;2023-05-10T16:39:50;101036.44;;;18.33
51693;BMP280;37777;53.066;21.638;2023-05-10T16:46:53;101039.16;;;18.29
51693;BMP280;37777;53.066;21.638;2023-05-10T16:53:55;101044.47;;;18.00
51693;BMP280;37777;53.066;21.638;2023-05-10T17:00:57;101049.94;;;17.97
51693;BMP280;37777;53.066;21.638;2023-05-10T17:07:59;101058.44;;;17.81
51693;BMP280;37777;53.066;21.638;2023-05-10T17:15:02;101059.09;;;17.67
51693;BMP280;37777;53.066;21.638;2023-05-10T17:22:04;101064.72;;;17.40
51693;BMP280;37777;53.066;21.638;2023-05-10T17:29:06;101068.25;;;17.41
51693;BMP280;37777;53.066;21.638;2023-05-10T17:36:08;101078.31;;;17.29
51693;BMP280;37777;53.066;21.638;2023-05-10T17:43:11;101083.63;;;17.15
51693;BMP280;37777;53.066;21.638;2023-05-10T17:50:13;101078.69;;;16.94
51693;BMP280;37777;53.066;21.638;2023-05-10T17:57:15;101099.47;;;16.68
51693;BMP280;37777;53.066;21.638;2023-05-10T18:04:18;101091.50;;;16.26
51693;BMP280;37777;53.066;21.638;2023-05-10T18:11:20;101101.88;;;15.93
51693;BMP280;37777;53.066;21.638;2023-05-10T18:18:23;101094.41;;;15.67
51693;BMP280;37777;53.066;21.638;2023-05-10T18:25:26;101099.13;;;15.47
51693;BMP280;37777;53.066;21.638;2023-05-10T18:32:28;101114.03;;;15.30
51693;BMP280;37777;53.066;21.638;2023-05-10T18:39:30;101115.88;;;15.07
51693;BMP280;37777;53.066;21.638;2023-05-10T18:46:32;101116.81;;;14.95
51693;BMP280;37777;53.066;21.638;2023-05-10T18:53:35;101128.75;;;14.71
51693;BMP280;37777;53.066;21.638;2023-05-10T19:00:38;101124.88;;;14.56
51693;BMP280;37777;53.066;21.638;2023-05-10T19:07:40;101136.25;;;14.42
51693;BMP280;37777;53.066;21.638;2023-05-10T19:14:45;101129.72;;;14.30
51693;BMP280;37777;53.066;21.638;2023-05-10T19:21:50;101124.56;;;14.09
51693;BMP280;37777;53.066;21.638;2023-05-10T19:28:57;101128.00;;;13.90
51693;BMP280;37777;53.066;21.638;2023-05-10T19:36:00;101133.72;;;13.73
51693;BMP280;37777;53.066;21.638;2023-05-10T19:43:03;101128.03;;;13.62
51693;BMP280;37777;53.066;21.638;2023-05-10T19:50:07;101146.06;;;13.54
51693;BMP280;37777;53.066;21.638;2023-05-10T19:57:09;101147.72;;;13.31
51693;BMP280;37777;53.066;21.638;2023-05-10T20:04:15;101149.91;;;13.25
51693;BMP280;37777;53.066;21.638;2023-05-10T20:11:18;101158.75;;;13.10
51693;BMP280;37777;53.066;21.638;2023-05-10T20:18:20;101158.44;;;12.99
51693;BMP280;37777;53.066;21.638;2023-05-10T20:25:23;101164.66;;;12.87
51693;BMP280;37777;53.066;21.638;2023-05-10T20:32:25;101163.22;;;12.77
51693;BMP280;37777;53.066;21.638;2023-05-10T20:39:27;101161.03;;;12.58
51693;BMP280;37777;53.066;21.638;2023-05-10T20:46:31;101153.34;;;12.36
51693;BMP280;37777;53.066;21.638;2023-05-10T20:53:33;101165.53;;;12.30
51693;BMP280;37777;53.066;21.638;2023-05-10T21:00:35;101168.53;;;12.16
51693;BMP280;37777;53.066;21.638;2023-05-10T21:07:37;101175.81;;;11.91
51693;BMP280;37777;53.066;21.638;2023-05-10T21:14:40;101171.03;;;11.54
51693;BMP280;37777;53.066;21.638;2023-05-10T21:21:47;101174.78;;;11.41
51693;BMP280;37777;53.066;21.638;2023-05-10T21:28:51;101178.69;;;11.31
51693;BMP280;37777;53.066;21.638;2023-05-10T21:35:53;101183.09;;;11.14
51693;BMP280;37777;53.066;21.638;2023-05-10T21:42:56;101196.22;;;11.04
51693;BMP280;37777;53.066;21.638;2023-05-10T21:49:58;101196.31;;;10.69
51693;BMP280;37777;53.066;21.638;2023-05-10T21:57:00;101199.97;;;10.73
51693;BMP280;37777;53.066;21.638;2023-05-10T22:04:02;101189.69;;;10.57
51693;BMP280;37777;53.066;21.638;2023-05-10T22:11:04;101202.16;;;10.41
51693;BMP280;37777;53.066;21.638;2023-05-10T22:18:07;101202.31;;;10.18
51693;BMP280;37777;53.066;21.638;2023-05-10T22:25:10;101211.41;;;10.05
51693;BMP280;37777;53.066;21.638;2023-05-10T22:32:12;101209.66;;;9.92
51693;BMP280;37777;53.066;21.638;2023-05-10T22:39:14;101214.75;;;10.02
51693;BMP280;37777;53.066;21.638;2023-05-10T22:46:16;101206.81;;;9.79
51693;BMP280;37777;53.066;21.638;2023-05-10T22:53:18;101218.88;;;9.64
51693;BMP280;37777;53.066;21.638;2023-05-10T23:00:20;101227.59;;;9.52
51693;BMP280;37777;53.066;21.638;2023-05-10T23:07:22;101230.75;;;9.46
51693;BMP280;37777;53.066;21.638;2023-05-10T23:14:24;101235.13;;;9.24
51693;BMP280;37777;53.066;21.638;2023-05-10T23:21:26;101239.53;;;9.11
51693;BMP280;37777;53.066;21.638;2023-05-10T23:28:32;101241.13;;;8.81
51693;BMP280;37777;53.066;21.638;2023-05-10T23:35:34;101246.16;;;8.51
51693;BMP280;37777;53.066;21.638;2023-05-10T23:42:36;101244.59;;;8.36
51693;BMP280;37777;53.066;21.638;2023-05-10T23:49:39;101250.31;;;8.57
51693;BMP280;37777;53.066;21.638;2023-05-10T23:56:42;101249.16;;;8.50
